Norfolk, Virginia
Traffic Map
Current Weather Conditions
Norfolk, Virginia
Clear
Clear
36°
Feels Like: 36°
Wind Chill: 36° Ceiling: Unl
Heat Index: 36° Visibility: 10mi
Dew Point: 24° Wind: 0mph
Humidity: 62% Direction: ° ()
Pressure: 30.34in Gusts: 0mph
Raw Report DataKORF 070051Z AUTO 00000KT 10SM CLR 02/M04 A3034 RMK AO2 SLP271 T00221044 TSNO
Traffic Incident Summary
Active as of:
Severity:
Category:
InformationThere was an issue retrieving the traffic information for this location. Please try a different location or try again shortly.
Advertisements
Track Severe Weather on mobile